sensor_id;sensor_type;location;lat;lon;timestamp;P1;durP1;ratioP1;P2;durP2;ratioP2
23394;SDS011;11870;53.084;18.206;2023-02-28T00:00:10;108.18;;;33.50;;
23394;SDS011;11870;53.084;18.206;2023-02-28T00:02:58;102.68;;;31.65;;
23394;SDS011;11870;53.084;18.206;2023-02-28T00:05:25;91.95;;;28.45;;
23394;SDS011;11870;53.084;18.206;2023-02-28T00:07:53;86.63;;;27.70;;
23394;SDS011;11870;53.084;18.206;2023-02-28T00:10:20;118.32;;;33.45;;
23394;SDS011;11870;53.084;18.206;2023-02-28T00:12:48;140.68;;;38.17;;
23394;SDS011;11870;53.084;18.206;2023-02-28T00:15:15;110.15;;;32.78;;
23394;SDS011;11870;53.084;18.206;2023-02-28T00:17:41;98.97;;;31.38;;
23394;SDS011;11870;53.084;18.206;2023-02-28T00:20:08;97.47;;;30.83;;
23394;SDS011;11870;53.084;18.206;2023-02-28T00:22:40;97.30;;;29.00;;
23394;SDS011;11870;53.084;18.206;2023-02-28T00:25:09;91.82;;;29.35;;
23394;SDS011;11870;53.084;18.206;2023-02-28T00:27:36;125.75;;;29.75;;
23394;SDS011;11870;53.084;18.206;2023-02-28T00:30:04;81.40;;;25.13;;
23394;SDS011;11870;53.084;18.206;2023-02-28T00:32:31;72.80;;;22.35;;
23394;SDS011;11870;53.084;18.206;2023-02-28T00:34:57;58.47;;;20.05;;
23394;SDS011;11870;53.084;18.206;2023-02-28T00:37:23;71.53;;;22.50;;
23394;SDS011;11870;53.084;18.206;2023-02-28T00:39:49;69.78;;;23.10;;
23394;SDS011;11870;53.084;18.206;2023-02-28T00:42:15;68.60;;;21.70;;
23394;SDS011;11870;53.084;18.206;2023-02-28T00:44:41;64.55;;;20.58;;
23394;SDS011;11870;53.084;18.206;2023-02-28T00:47:07;66.68;;;21.10;;
23394;SDS011;11870;53.084;18.206;2023-02-28T00:49:33;48.70;;;19.08;;
23394;SDS011;11870;53.084;18.206;2023-02-28T00:51:58;49.22;;;17.75;;
23394;SDS011;11870;53.084;18.206;2023-02-28T00:54:24;52.63;;;18.23;;
23394;SDS011;11870;53.084;18.206;2023-02-28T00:56:50;55.17;;;20.50;;
23394;SDS011;11870;53.084;18.206;2023-02-28T00:59:17;101.40;;;29.70;;
23394;SDS011;11870;53.084;18.206;2023-02-28T01:01:43;98.30;;;27.98;;
23394;SDS011;11870;53.084;18.206;2023-02-28T01:04:11;118.80;;;30.88;;
23394;SDS011;11870;53.084;18.206;2023-02-28T01:06:37;97.15;;;30.65;;
23394;SDS011;11870;53.084;18.206;2023-02-28T01:09:05;96.18;;;26.77;;
23394;SDS011;11870;53.084;18.206;2023-02-28T01:11:32;80.75;;;25.80;;
23394;SDS011;11870;53.084;18.206;2023-02-28T01:13:59;75.13;;;22.50;;
23394;SDS011;11870;53.084;18.206;2023-02-28T01:16:25;77.97;;;24.75;;
23394;SDS011;11870;53.084;18.206;2023-02-28T01:18:52;75.13;;;22.88;;
23394;SDS011;11870;53.084;18.206;2023-02-28T01:21:19;82.28;;;24.13;;
23394;SDS011;11870;53.084;18.206;2023-02-28T01:23:46;85.32;;;26.30;;
23394;SDS011;11870;53.084;18.206;2023-02-28T01:28:46;83.35;;;26.50;;
23394;SDS011;11870;53.084;18.206;2023-02-28T01:31:13;100.28;;;26.83;;
23394;SDS011;11870;53.084;18.206;2023-02-28T01:33:40;110.30;;;28.15;;
23394;SDS011;11870;53.084;18.206;2023-02-28T01:36:13;95.00;;;27.08;;
23394;SDS011;11870;53.084;18.206;2023-02-28T01:38:41;86.07;;;25.80;;
23394;SDS011;11870;53.084;18.206;2023-02-28T01:41:07;115.15;;;33.08;;
23394;SDS011;11870;53.084;18.206;2023-02-28T01:46:10;206.13;;;53.53;;
23394;SDS011;11870;53.084;18.206;2023-02-28T01:48:42;142.18;;;40.40;;
23394;SDS011;11870;53.084;18.206;2023-02-28T01:51:26;136.45;;;40.97;;
23394;SDS011;11870;53.084;18.206;2023-02-28T01:54:01;124.55;;;34.88;;
23394;SDS011;11870;53.084;18.206;2023-02-28T01:56:32;91.13;;;29.80;;
23394;SDS011;11870;53.084;18.206;2023-02-28T01:59:00;64.78;;;22.60;;
23394;SDS011;11870;53.084;18.206;2023-02-28T02:01:27;75.03;;;26.15;;
23394;SDS011;11870;53.084;18.206;2023-02-28T02:03:55;75.00;;;26.05;;
23394;SDS011;11870;53.084;18.206;2023-02-28T02:06:34;65.07;;;23.08;;
23394;SDS011;11870;53.084;18.206;2023-02-28T02:09:03;74.15;;;24.50;;
23394;SDS011;11870;53.084;18.206;2023-02-28T02:11:29;73.20;;;24.27;;
23394;SDS011;11870;53.084;18.206;2023-02-28T02:19:59;68.55;;;23.70;;
23394;SDS011;11870;53.084;18.206;2023-02-28T02:25:36;62.22;;;21.45;;
23394;SDS011;11870;53.084;18.206;2023-02-28T02:28:46;61.78;;;21.77;;
23394;SDS011;11870;53.084;18.206;2023-02-28T02:35:02;61.95;;;21.60;;
23394;SDS011;11870;53.084;18.206;2023-02-28T02:39:58;55.00;;;20.67;;
23394;SDS011;11870;53.084;18.206;2023-02-28T02:42:34;78.03;;;26.77;;
23394;SDS011;11870;53.084;18.206;2023-02-28T02:45:24;77.07;;;24.30;;
23394;SDS011;11870;53.084;18.206;2023-02-28T02:48:01;49.45;;;18.00;;
23394;SDS011;11870;53.084;18.206;2023-02-28T02:50:34;42.30;;;16.40;;
23394;SDS011;11870;53.084;18.206;2023-02-28T02:53:04;44.97;;;16.75;;
23394;SDS011;11870;53.084;18.206;2023-02-28T02:55:32;33.83;;;14.00;;
23394;SDS011;11870;53.084;18.206;2023-02-28T02:58:03;45.10;;;13.90;;
23394;SDS011;11870;53.084;18.206;2023-02-28T03:00:33;41.90;;;17.08;;
23394;SDS011;11870;53.084;18.206;2023-02-28T03:03:03;46.17;;;15.70;;
23394;SDS011;11870;53.084;18.206;2023-02-28T03:05:33;38.85;;;16.73;;
23394;SDS011;11870;53.084;18.206;2023-02-28T03:08:20;46.28;;;17.40;;
23394;SDS011;11870;53.084;18.206;2023-02-28T03:10:48;47.40;;;18.15;;
23394;SDS011;11870;53.084;18.206;2023-02-28T03:24:57;51.42;;;18.45;;
23394;SDS011;11870;53.084;18.206;2023-02-28T03:30:36;45.40;;;16.70;;
23394;SDS011;11870;53.084;18.206;2023-02-28T03:33:29;49.75;;;19.35;;
23394;SDS011;11870;53.084;18.206;2023-02-28T03:36:02;52.65;;;18.70;;
23394;SDS011;11870;53.084;18.206;2023-02-28T03:38:35;45.78;;;17.77;;
23394;SDS011;11870;53.084;18.206;2023-02-28T03:43:37;52.17;;;18.48;;
23394;SDS011;11870;53.084;18.206;2023-02-28T03:46:08;42.17;;;16.83;;
23394;SDS011;11870;53.084;18.206;2023-02-28T03:51:10;47.55;;;16.95;;
23394;SDS011;11870;53.084;18.206;2023-02-28T03:53:50;44.13;;;17.65;;
23394;SDS011;11870;53.084;18.206;2023-02-28T03:56:37;47.90;;;17.90;;
23394;SDS011;11870;53.084;18.206;2023-02-28T03:59:13;51.30;;;18.40;;
23394;SDS011;11870;53.084;18.206;2023-02-28T04:01:48;50.88;;;17.08;;
23394;SDS011;11870;53.084;18.206;2023-02-28T04:04:15;53.05;;;17.98;;
23394;SDS011;11870;53.084;18.206;2023-02-28T04:06:42;45.80;;;17.30;;
23394;SDS011;11870;53.084;18.206;2023-02-28T04:09:10;46.13;;;17.17;;
23394;SDS011;11870;53.084;18.206;2023-02-28T04:11:38;42.75;;;16.83;;
23394;SDS011;11870;53.084;18.206;2023-02-28T04:14:09;42.00;;;15.88;;
23394;SDS011;11870;53.084;18.206;2023-02-28T04:16:37;45.05;;;16.58;;
23394;SDS011;11870;53.084;18.206;2023-02-28T04:19:06;48.05;;;16.38;;
23394;SDS011;11870;53.084;18.206;2023-02-28T04:21:37;40.38;;;14.93;;
23394;SDS011;11870;53.084;18.206;2023-02-28T04:24:08;43.00;;;16.55;;
23394;SDS011;11870;53.084;18.206;2023-02-28T04:26:40;42.30;;;16.10;;
23394;SDS011;11870;53.084;18.206;2023-02-28T04:29:08;49.00;;;18.55;;
23394;SDS011;11870;53.084;18.206;2023-02-28T04:31:36;59.90;;;21.98;;
23394;SDS011;11870;53.084;18.206;2023-02-28T04:34:02;49.08;;;18.58;;
23394;SDS011;11870;53.084;18.206;2023-02-28T04:36:29;52.38;;;19.05;;
23394;SDS011;11870;53.084;18.206;2023-02-28T04:38:54;48.40;;;17.15;;
23394;SDS011;11870;53.084;18.206;2023-02-28T04:41:21;43.65;;;16.23;;
23394;SDS011;11870;53.084;18.206;2023-02-28T04:43:47;40.72;;;16.60;;
23394;SDS011;11870;53.084;18.206;2023-02-28T04:46:14;49.13;;;17.77;;
23394;SDS011;11870;53.084;18.206;2023-02-28T04:48:40;43.15;;;16.25;;
23394;SDS011;11870;53.084;18.206;2023-02-28T04:51:07;41.47;;;16.42;;
23394;SDS011;11870;53.084;18.206;2023-02-28T04:53:35;45.08;;;16.92;;
23394;SDS011;11870;53.084;18.206;2023-02-28T04:56:02;49.25;;;18.42;;
23394;SDS011;11870;53.084;18.206;2023-02-28T04:58:29;51.03;;;20.17;;
23394;SDS011;11870;53.084;18.206;2023-02-28T05:01:01;58.17;;;23.70;;
23394;SDS011;11870;53.084;18.206;2023-02-28T05:03:29;57.70;;;21.00;;
23394;SDS011;11870;53.084;18.206;2023-02-28T05:05:55;46.97;;;17.48;;
23394;SDS011;11870;53.084;18.206;2023-02-28T05:08:21;46.45;;;17.20;;
23394;SDS011;11870;53.084;18.206;2023-02-28T05:10:47;38.92;;;16.35;;
23394;SDS011;11870;53.084;18.206;2023-02-28T05:13:12;42.08;;;15.95;;
23394;SDS011;11870;53.084;18.206;2023-02-28T05:15:38;46.30;;;18.67;;
23394;SDS011;11870;53.084;18.206;2023-02-28T05:18:04;42.22;;;17.17;;
23394;SDS011;11870;53.084;18.206;2023-02-28T05:20:30;48.85;;;18.40;;
23394;SDS011;11870;53.084;18.206;2023-02-28T05:22:56;47.08;;;18.83;;
23394;SDS011;11870;53.084;18.206;2023-02-28T05:25:24;45.35;;;17.27;;
23394;SDS011;11870;53.084;18.206;2023-02-28T05:27:50;54.67;;;19.00;;
23394;SDS011;11870;53.084;18.206;2023-02-28T05:30:16;52.63;;;18.55;;
23394;SDS011;11870;53.084;18.206;2023-02-28T05:32:42;50.42;;;18.52;;
23394;SDS011;11870;53.084;18.206;2023-02-28T05:35:09;48.28;;;18.50;;
23394;SDS011;11870;53.084;18.206;2023-02-28T05:37:36;51.67;;;18.15;;
23394;SDS011;11870;53.084;18.206;2023-02-28T05:40:03;51.05;;;19.75;;
23394;SDS011;11870;53.084;18.206;2023-02-28T05:42:36;48.35;;;18.00;;
23394;SDS011;11870;53.084;18.206;2023-02-28T05:45:04;53.75;;;19.38;;
23394;SDS011;11870;53.084;18.206;2023-02-28T05:47:30;44.58;;;18.55;;
23394;SDS011;11870;53.084;18.206;2023-02-28T05:49:56;54.40;;;19.05;;
23394;SDS011;11870;53.084;18.206;2023-02-28T05:52:22;127.43;;;36.15;;
23394;SDS011;11870;53.084;18.206;2023-02-28T05:54:48;107.18;;;30.17;;
23394;SDS011;11870;53.084;18.206;2023-02-28T05:57:14;85.00;;;26.83;;
23394;SDS011;11870;53.084;18.206;2023-02-28T05:59:40;73.57;;;24.23;;
23394;SDS011;11870;53.084;18.206;2023-02-28T06:02:10;77.85;;;24.50;;
23394;SDS011;11870;53.084;18.206;2023-02-28T06:04:38;105.03;;;34.63;;
23394;SDS011;11870;53.084;18.206;2023-02-28T06:07:06;227.38;;;76.50;;
23394;SDS011;11870;53.084;18.206;2023-02-28T06:09:32;174.02;;;59.92;;
23394;SDS011;11870;53.084;18.206;2023-02-28T06:11:59;139.98;;;45.53;;
23394;SDS011;11870;53.084;18.206;2023-02-28T06:14:28;82.07;;;31.55;;
23394;SDS011;11870;53.084;18.206;2023-02-28T06:16:56;99.07;;;30.88;;
23394;SDS011;11870;53.084;18.206;2023-02-28T06:19:23;103.63;;;31.23;;
23394;SDS011;11870;53.084;18.206;2023-02-28T06:21:51;75.95;;;28.35;;
23394;SDS011;11870;53.084;18.206;2023-02-28T06:24:18;120.38;;;30.55;;
23394;SDS011;11870;53.084;18.206;2023-02-28T06:26:45;98.28;;;30.40;;
23394;SDS011;11870;53.084;18.206;2023-02-28T06:29:11;245.07;;;37.70;;
23394;SDS011;11870;53.084;18.206;2023-02-28T06:31:36;242.00;;;42.00;;
23394;SDS011;11870;53.084;18.206;2023-02-28T06:34:04;129.80;;;34.60;;
23394;SDS011;11870;53.084;18.206;2023-02-28T06:36:30;78.75;;;30.05;;
23394;SDS011;11870;53.084;18.206;2023-02-28T06:38:56;72.32;;;30.98;;
23394;SDS011;11870;53.084;18.206;2023-02-28T06:41:23;73.43;;;31.80;;
23394;SDS011;11870;53.084;18.206;2023-02-28T06:43:50;72.38;;;32.50;;
23394;SDS011;11870;53.084;18.206;2023-02-28T06:46:16;94.63;;;41.53;;
23394;SDS011;11870;53.084;18.206;2023-02-28T06:48:43;72.93;;;33.83;;
23394;SDS011;11870;53.084;18.206;2023-02-28T06:51:10;67.00;;;31.77;;
23394;SDS011;11870;53.084;18.206;2023-02-28T06:53:39;59.30;;;26.65;;
23394;SDS011;11870;53.084;18.206;2023-02-28T06:56:10;52.63;;;24.50;;
23394;SDS011;11870;53.084;18.206;2023-02-28T06:58:38;51.88;;;23.60;;
23394;SDS011;11870;53.084;18.206;2023-02-28T07:01:05;53.03;;;25.65;;
23394;SDS011;11870;53.084;18.206;2023-02-28T07:03:32;52.67;;;24.63;;
23394;SDS011;11870;53.084;18.206;2023-02-28T07:05:58;52.63;;;24.20;;
23394;SDS011;11870;53.084;18.206;2023-02-28T07:08:25;57.13;;;25.08;;
23394;SDS011;11870;53.084;18.206;2023-02-28T07:10:55;61.97;;;27.95;;
23394;SDS011;11870;53.084;18.206;2023-02-28T07:13:22;58.33;;;27.48;;
23394;SDS011;11870;53.084;18.206;2023-02-28T07:15:55;54.42;;;25.85;;
23394;SDS011;11870;53.084;18.206;2023-02-28T07:18:25;53.13;;;26.23;;
23394;SDS011;11870;53.084;18.206;2023-02-28T07:20:51;58.40;;;28.92;;
23394;SDS011;11870;53.084;18.206;2023-02-28T07:23:18;57.65;;;28.40;;
23394;SDS011;11870;53.084;18.206;2023-02-28T07:25:44;58.33;;;28.73;;
23394;SDS011;11870;53.084;18.206;2023-02-28T07:28:11;51.50;;;25.40;;
23394;SDS011;11870;53.084;18.206;2023-02-28T07:30:37;51.20;;;25.02;;
23394;SDS011;11870;53.084;18.206;2023-02-28T07:33:04;52.28;;;26.00;;
23394;SDS011;11870;53.084;18.206;2023-02-28T07:35:30;45.28;;;23.40;;
23394;SDS011;11870;53.084;18.206;2023-02-28T07:37:59;44.95;;;22.55;;
23394;SDS011;11870;53.084;18.206;2023-02-28T07:40:25;43.97;;;23.30;;
23394;SDS011;11870;53.084;18.206;2023-02-28T07:42:51;42.80;;;22.67;;
23394;SDS011;11870;53.084;18.206;2023-02-28T07:45:17;40.58;;;21.38;;
23394;SDS011;11870;53.084;18.206;2023-02-28T07:47:43;36.50;;;20.85;;
23394;SDS011;11870;53.084;18.206;2023-02-28T07:50:10;41.20;;;21.23;;
23394;SDS011;11870;53.084;18.206;2023-02-28T07:52:38;36.15;;;20.33;;
23394;SDS011;11870;53.084;18.206;2023-02-28T07:55:05;34.67;;;19.63;;
23394;SDS011;11870;53.084;18.206;2023-02-28T07:57:33;42.38;;;21.25;;
23394;SDS011;11870;53.084;18.206;2023-02-28T07:59:59;35.13;;;20.73;;
23394;SDS011;11870;53.084;18.206;2023-02-28T08:02:25;33.60;;;20.63;;
23394;SDS011;11870;53.084;18.206;2023-02-28T08:04:51;41.88;;;22.10;;
23394;SDS011;11870;53.084;18.206;2023-02-28T08:07:17;35.53;;;21.42;;
23394;SDS011;11870;53.084;18.206;2023-02-28T08:09:43;38.55;;;21.65;;
23394;SDS011;11870;53.084;18.206;2023-02-28T08:12:11;52.22;;;27.52;;
23394;SDS011;11870;53.084;18.206;2023-02-28T08:14:37;53.42;;;30.02;;
23394;SDS011;11870;53.084;18.206;2023-02-28T08:17:05;48.00;;;24.88;;
23394;SDS011;11870;53.084;18.206;2023-02-28T08:19:31;41.70;;;22.48;;
23394;SDS011;11870;53.084;18.206;2023-02-28T08:21:57;43.40;;;23.65;;
23394;SDS011;11870;53.084;18.206;2023-02-28T08:24:23;35.22;;;20.38;;
23394;SDS011;11870;53.084;18.206;2023-02-28T08:26:49;35.80;;;20.45;;
23394;SDS011;11870;53.084;18.206;2023-02-28T08:29:15;42.47;;;24.13;;
23394;SDS011;11870;53.084;18.206;2023-02-28T08:31:42;50.88;;;26.30;;
23394;SDS011;11870;53.084;18.206;2023-02-28T08:34:09;28.73;;;18.60;;
23394;SDS011;11870;53.084;18.206;2023-02-28T08:36:37;31.05;;;18.33;;
23394;SDS011;11870;53.084;18.206;2023-02-28T08:39:04;31.02;;;17.75;;
23394;SDS011;11870;53.084;18.206;2023-02-28T08:41:30;27.88;;;17.77;;
23394;SDS011;11870;53.084;18.206;2023-02-28T08:43:56;29.55;;;18.02;;
23394;SDS011;11870;53.084;18.206;2023-02-28T08:46:23;26.48;;;15.80;;
23394;SDS011;11870;53.084;18.206;2023-02-28T08:48:53;25.38;;;16.35;;
23394;SDS011;11870;53.084;18.206;2023-02-28T08:51:21;27.67;;;15.95;;
23394;SDS011;11870;53.084;18.206;2023-02-28T08:54:09;26.33;;;15.73;;
23394;SDS011;11870;53.084;18.206;2023-02-28T08:56:38;26.20;;;15.20;;
23394;SDS011;11870;53.084;18.206;2023-02-28T08:59:04;19.38;;;13.00;;
23394;SDS011;11870;53.084;18.206;2023-02-28T09:01:30;22.10;;;13.60;;
23394;SDS011;11870;53.084;18.206;2023-02-28T09:03:57;21.25;;;13.77;;
23394;SDS011;11870;53.084;18.206;2023-02-28T09:06:25;27.25;;;15.18;;
23394;SDS011;11870;53.084;18.206;2023-02-28T09:08:51;21.90;;;12.48;;
23394;SDS011;11870;53.084;18.206;2023-02-28T09:11:18;22.05;;;13.00;;
23394;SDS011;11870;53.084;18.206;2023-02-28T09:13:45;23.77;;;13.15;;
23394;SDS011;11870;53.084;18.206;2023-02-28T09:16:12;20.33;;;12.27;;
23394;SDS011;11870;53.084;18.206;2023-02-28T09:18:39;18.17;;;11.50;;
23394;SDS011;11870;53.084;18.206;2023-02-28T09:21:06;17.58;;;11.60;;
23394;SDS011;11870;53.084;18.206;2023-02-28T09:23:33;17.20;;;10.52;;
23394;SDS011;11870;53.084;18.206;2023-02-28T09:26:00;16.85;;;10.45;;
23394;SDS011;11870;53.084;18.206;2023-02-28T09:28:26;17.80;;;11.43;;
23394;SDS011;11870;53.084;18.206;2023-02-28T09:30:53;18.88;;;10.90;;
23394;SDS011;11870;53.084;18.206;2023-02-28T09:33:20;17.25;;;10.27;;
23394;SDS011;11870;53.084;18.206;2023-02-28T09:35:47;15.90;;;9.20;;
23394;SDS011;11870;53.084;18.206;2023-02-28T09:38:14;17.08;;;8.88;;
23394;SDS011;11870;53.084;18.206;2023-02-28T09:40:47;14.65;;;9.70;;
23394;SDS011;11870;53.084;18.206;2023-02-28T09:43:23;13.10;;;8.35;;
23394;SDS011;11870;53.084;18.206;2023-02-28T09:45:58;15.27;;;9.30;;
23394;SDS011;11870;53.084;18.206;2023-02-28T09:48:35;13.65;;;9.30;;
23394;SDS011;11870;53.084;18.206;2023-02-28T09:51:09;12.27;;;7.95;;
23394;SDS011;11870;53.084;18.206;2023-02-28T10:12:02;7.18;;;4.70;;
23394;SDS011;11870;53.084;18.206;2023-02-28T10:14:31;4.22;;;3.00;;
23394;SDS011;11870;53.084;18.206;2023-02-28T10:16:59;6.35;;;4.20;;
23394;SDS011;11870;53.084;18.206;2023-02-28T10:19:44;7.03;;;4.75;;
23394;SDS011;11870;53.084;18.206;2023-02-28T10:22:21;8.93;;;6.45;;
23394;SDS011;11870;53.084;18.206;2023-02-28T10:25:25;10.13;;;7.20;;
23394;SDS011;11870;53.084;18.206;2023-02-28T10:28:10;11.45;;;6.50;;
23394;SDS011;11870;53.084;18.206;2023-02-28T10:30:43;7.75;;;4.85;;
23394;SDS011;11870;53.084;18.206;2023-02-28T10:35:53;5.82;;;4.50;;
23394;SDS011;11870;53.084;18.206;2023-02-28T10:38:21;6.05;;;4.47;;
23394;SDS011;11870;53.084;18.206;2023-02-28T10:41:05;7.75;;;4.30;;
23394;SDS011;11870;53.084;18.206;2023-02-28T10:43:31;6.57;;;4.50;;
23394;SDS011;11870;53.084;18.206;2023-02-28T10:51:00;9.63;;;5.30;;
23394;SDS011;11870;53.084;18.206;2023-02-28T10:53:33;9.40;;;5.38;;
23394;SDS011;11870;53.084;18.206;2023-02-28T11:01:41;8.35;;;4.72;;
23394;SDS011;11870;53.084;18.206;2023-02-28T11:04:19;9.20;;;4.72;;
23394;SDS011;11870;53.084;18.206;2023-02-28T11:06:56;8.52;;;4.82;;
23394;SDS011;11870;53.084;18.206;2023-02-28T11:09:44;10.38;;;4.70;;
23394;SDS011;11870;53.084;18.206;2023-02-28T11:12:19;11.48;;;4.72;;
23394;SDS011;11870;53.084;18.206;2023-02-28T11:17:44;10.25;;;5.05;;
23394;SDS011;11870;53.084;18.206;2023-02-28T11:20:24;9.98;;;5.03;;
23394;SDS011;11870;53.084;18.206;2023-02-28T11:22:52;8.85;;;5.00;;
23394;SDS011;11870;53.084;18.206;2023-02-28T11:25:24;10.63;;;4.28;;
23394;SDS011;11870;53.084;18.206;2023-02-28T11:27:54;8.75;;;4.75;;
23394;SDS011;11870;53.084;18.206;2023-02-28T11:30:22;13.25;;;6.15;;
23394;SDS011;11870;53.084;18.206;2023-02-28T11:32:54;9.95;;;5.05;;
23394;SDS011;11870;53.084;18.206;2023-02-28T11:38:00;12.13;;;6.15;;
23394;SDS011;11870;53.084;18.206;2023-02-28T11:54:23;12.88;;;6.22;;
23394;SDS011;11870;53.084;18.206;2023-02-28T11:57:03;11.70;;;5.47;;
23394;SDS011;11870;53.084;18.206;2023-02-28T11:59:56;12.57;;;6.15;;
23394;SDS011;11870;53.084;18.206;2023-02-28T12:02:28;12.63;;;5.95;;
23394;SDS011;11870;53.084;18.206;2023-02-28T12:05:09;12.70;;;5.75;;
23394;SDS011;11870;53.084;18.206;2023-02-28T12:10:52;10.77;;;6.10;;
23394;SDS011;11870;53.084;18.206;2023-02-28T12:13:41;13.23;;;6.50;;
23394;SDS011;11870;53.084;18.206;2023-02-28T12:22:40;11.32;;;5.78;;
23394;SDS011;11870;53.084;18.206;2023-02-28T12:25:37;10.93;;;5.18;;
23394;SDS011;11870;53.084;18.206;2023-02-28T12:28:14;8.75;;;4.50;;
23394;SDS011;11870;53.084;18.206;2023-02-28T12:31:45;10.80;;;5.50;;
23394;SDS011;11870;53.084;18.206;2023-02-28T12:33:48;11.43;;;5.13;;
23394;SDS011;11870;53.084;18.206;2023-02-28T12:36:18;11.98;;;5.25;;
23394;SDS011;11870;53.084;18.206;2023-02-28T12:38:48;10.02;;;5.05;;
23394;SDS011;11870;53.084;18.206;2023-02-28T12:41:34;11.52;;;5.32;;
23394;SDS011;11870;53.084;18.206;2023-02-28T12:44:56;11.18;;;5.32;;
23394;SDS011;11870;53.084;18.206;2023-02-28T12:47:17;11.85;;;5.25;;
23394;SDS011;11870;53.084;18.206;2023-02-28T12:49:52;13.90;;;5.40;;
23394;SDS011;11870;53.084;18.206;2023-02-28T12:52:31;12.55;;;5.55;;
23394;SDS011;11870;53.084;18.206;2023-02-28T12:55:12;13.48;;;5.90;;
23394;SDS011;11870;53.084;18.206;2023-02-28T13:00:16;12.85;;;5.65;;
23394;SDS011;11870;53.084;18.206;2023-02-28T13:11:07;10.88;;;5.05;;
23394;SDS011;11870;53.084;18.206;2023-02-28T13:13:56;9.77;;;5.00;;
23394;SDS011;11870;53.084;18.206;2023-02-28T13:16:46;11.30;;;5.55;;
23394;SDS011;11870;53.084;18.206;2023-02-28T13:19:32;9.30;;;4.88;;
23394;SDS011;11870;53.084;18.206;2023-02-28T13:22:01;12.63;;;5.63;;
23394;SDS011;11870;53.084;18.206;2023-02-28T13:24:42;13.25;;;6.00;;
23394;SDS011;11870;53.084;18.206;2023-02-28T13:29:39;13.68;;;5.07;;
23394;SDS011;11870;53.084;18.206;2023-02-28T13:34:37;9.98;;;5.00;;
23394;SDS011;11870;53.084;18.206;2023-02-28T13:39:50;11.52;;;5.00;;
23394;SDS011;11870;53.084;18.206;2023-02-28T13:45:30;12.25;;;4.80;;
23394;SDS011;11870;53.084;18.206;2023-02-28T13:47:33;9.48;;;4.68;;
23394;SDS011;11870;53.084;18.206;2023-02-28T14:01:17;10.40;;;5.22;;
23394;SDS011;11870;53.084;18.206;2023-02-28T14:06:56;10.07;;;5.03;;
23394;SDS011;11870;53.084;18.206;2023-02-28T14:09:31;12.52;;;4.50;;
23394;SDS011;11870;53.084;18.206;2023-02-28T14:15:28;9.45;;;4.38;;
23394;SDS011;11870;53.084;18.206;2023-02-28T14:17:54;9.68;;;4.65;;
23394;SDS011;11870;53.084;18.206;2023-02-28T14:20:22;12.05;;;4.63;;
23394;SDS011;11870;53.084;18.206;2023-02-28T14:28:55;11.73;;;5.05;;
23394;SDS011;11870;53.084;18.206;2023-02-28T14:31:48;9.18;;;4.43;;
23394;SDS011;11870;53.084;18.206;2023-02-28T14:34:31;11.80;;;4.57;;
23394;SDS011;11870;53.084;18.206;2023-02-28T14:37:10;9.07;;;4.22;;
23394;SDS011;11870;53.084;18.206;2023-02-28T14:39:42;9.65;;;4.15;;
23394;SDS011;11870;53.084;18.206;2023-02-28T14:42:27;11.32;;;4.47;;
23394;SDS011;11870;53.084;18.206;2023-02-28T14:45:01;8.90;;;4.10;;
23394;SDS011;11870;53.084;18.206;2023-02-28T14:47:28;10.18;;;4.38;;
23394;SDS011;11870;53.084;18.206;2023-02-28T14:49:58;8.30;;;4.07;;
23394;SDS011;11870;53.084;18.206;2023-02-28T14:52:27;7.97;;;3.63;;
23394;SDS011;11870;53.084;18.206;2023-02-28T14:54:55;9.02;;;3.67;;
23394;SDS011;11870;53.084;18.206;2023-02-28T14:57:33;6.47;;;3.88;;
23394;SDS011;11870;53.084;18.206;2023-02-28T15:00:09;7.90;;;3.80;;
23394;SDS011;11870;53.084;18.206;2023-02-28T15:02:38;8.07;;;3.28;;
23394;SDS011;11870;53.084;18.206;2023-02-28T15:07:43;7.38;;;3.55;;
23394;SDS011;11870;53.084;18.206;2023-02-28T15:10:11;7.38;;;3.22;;
23394;SDS011;11870;53.084;18.206;2023-02-28T15:12:50;9.15;;;4.00;;
23394;SDS011;11870;53.084;18.206;2023-02-28T15:15:16;8.30;;;3.70;;
23394;SDS011;11870;53.084;18.206;2023-02-28T15:17:48;7.85;;;3.53;;
23394;SDS011;11870;53.084;18.206;2023-02-28T15:20:16;10.43;;;4.05;;
23394;SDS011;11870;53.084;18.206;2023-02-28T15:22:43;13.15;;;3.95;;
23394;SDS011;11870;53.084;18.206;2023-02-28T15:25:13;9.00;;;4.15;;
23394;SDS011;11870;53.084;18.206;2023-02-28T15:27:45;9.25;;;3.88;;
23394;SDS011;11870;53.084;18.206;2023-02-28T15:30:15;8.27;;;3.40;;
23394;SDS011;11870;53.084;18.206;2023-02-28T15:35:38;9.32;;;3.55;;
23394;SDS011;11870;53.084;18.206;2023-02-28T15:38:23;5.13;;;2.85;;
23394;SDS011;11870;53.084;18.206;2023-02-28T15:40:52;9.10;;;3.38;;
23394;SDS011;11870;53.084;18.206;2023-02-28T15:43:24;8.40;;;3.38;;
23394;SDS011;11870;53.084;18.206;2023-02-28T15:45:55;8.35;;;3.78;;
23394;SDS011;11870;53.084;18.206;2023-02-28T15:50:55;9.00;;;4.07;;
23394;SDS011;11870;53.084;18.206;2023-02-28T15:53:28;8.73;;;4.38;;
23394;SDS011;11870;53.084;18.206;2023-02-28T15:55:59;7.93;;;3.60;;
23394;SDS011;11870;53.084;18.206;2023-02-28T15:58:46;9.90;;;3.92;;
23394;SDS011;11870;53.084;18.206;2023-02-28T16:01:20;10.73;;;3.65;;
23394;SDS011;11870;53.084;18.206;2023-02-28T16:03:50;6.80;;;3.53;;
23394;SDS011;11870;53.084;18.206;2023-02-28T16:06:21;10.65;;;3.97;;
23394;SDS011;11870;53.084;18.206;2023-02-28T16:08:56;6.72;;;3.75;;
23394;SDS011;11870;53.084;18.206;2023-02-28T16:11:21;9.95;;;4.07;;
23394;SDS011;11870;53.084;18.206;2023-02-28T16:13:48;8.48;;;3.80;;
23394;SDS011;11870;53.084;18.206;2023-02-28T16:16:16;9.35;;;3.72;;
23394;SDS011;11870;53.084;18.206;2023-02-28T16:18:47;8.63;;;3.83;;
23394;SDS011;11870;53.084;18.206;2023-02-28T16:21:12;8.80;;;3.63;;
23394;SDS011;11870;53.084;18.206;2023-02-28T16:23:38;6.43;;;3.33;;
23394;SDS011;11870;53.084;18.206;2023-02-28T16:26:04;8.23;;;4.03;;
23394;SDS011;11870;53.084;18.206;2023-02-28T16:28:35;7.78;;;3.90;;
23394;SDS011;11870;53.084;18.206;2023-02-28T16:31:03;13.07;;;4.07;;
23394;SDS011;11870;53.084;18.206;2023-02-28T16:33:32;11.73;;;3.65;;
23394;SDS011;11870;53.084;18.206;2023-02-28T16:35:58;9.32;;;3.50;;
23394;SDS011;11870;53.084;18.206;2023-02-28T16:38:25;12.40;;;4.38;;
23394;SDS011;11870;53.084;18.206;2023-02-28T16:40:59;10.55;;;4.07;;
23394;SDS011;11870;53.084;18.206;2023-02-28T16:43:26;12.07;;;3.53;;
23394;SDS011;11870;53.084;18.206;2023-02-28T16:45:55;10.48;;;3.45;;
23394;SDS011;11870;53.084;18.206;2023-02-28T16:48:25;7.25;;;3.63;;
23394;SDS011;11870;53.084;18.206;2023-02-28T16:50:51;8.05;;;3.65;;
23394;SDS011;11870;53.084;18.206;2023-02-28T16:53:17;12.43;;;3.63;;
23394;SDS011;11870;53.084;18.206;2023-02-28T16:55:43;8.02;;;3.83;;
23394;SDS011;11870;53.084;18.206;2023-02-28T16:58:13;8.27;;;3.65;;
23394;SDS011;11870;53.084;18.206;2023-02-28T17:00:41;7.18;;;3.70;;
23394;SDS011;11870;53.084;18.206;2023-02-28T17:03:15;9.02;;;3.88;;
23394;SDS011;11870;53.084;18.206;2023-02-28T17:05:47;8.45;;;3.67;;
23394;SDS011;11870;53.084;18.206;2023-02-28T17:08:13;12.73;;;3.47;;